createdAt,value
2022-10-02T00:01:15.766Z,5.38
2022-10-02T00:03:47.288Z,4.05
2022-10-02T00:06:22.517Z,6.82
2022-10-02T00:08:53.729Z,6.68
2022-10-02T00:11:24.495Z,4.78
2022-10-02T00:13:56.279Z,5.65
2022-10-02T00:16:29.675Z,4.47
2022-10-02T00:18:59.338Z,3.35
2022-10-02T00:22:07.567Z,4.97
2022-10-02T00:24:40.192Z,2.83
2022-10-02T00:27:17.070Z,3.13
2022-10-02T00:29:51.273Z,2.53
2022-10-02T00:32:35.091Z,3.28
2022-10-02T00:35:38.655Z,7.40
2022-10-02T00:38:16.860Z,2.92
2022-10-02T00:41:06.918Z,5.78
2022-10-02T00:43:45.684Z,4.57
2022-10-02T00:46:35.375Z,5.40
2022-10-02T00:49:29.172Z,4.28
2022-10-02T00:55:11.068Z,5.57
2022-10-02T00:57:52.038Z,2.95
2022-10-02T01:00:23.070Z,4.20
2022-10-02T01:03:10.498Z,4.72
2022-10-02T01:05:38.960Z,3.97
2022-10-02T01:08:09.674Z,2.97
2022-10-02T01:10:40.761Z,3.20
2022-10-02T01:13:09.264Z,3.25
2022-10-02T01:15:41.171Z,4.25
2022-10-02T01:18:11.988Z,4.50
2022-10-02T01:20:43.673Z,3.58
2022-10-02T01:23:23.824Z,3.25
2022-10-02T01:25:53.819Z,4.28
2022-10-02T01:28:25.713Z,6.60
2022-10-02T01:30:58.581Z,3.47
2022-10-02T01:33:27.863Z,4.53
2022-10-02T01:35:56.676Z,2.30
2022-10-02T01:38:26.309Z,4.78
2022-10-02T01:40:57.568Z,5.40
2022-10-02T01:43:30.388Z,3.30
2022-10-02T01:46:11.444Z,2.30
2022-10-02T01:48:48.400Z,2.95
2022-10-02T01:51:55.284Z,5.05
2022-10-02T01:54:35.982Z,4.32
2022-10-02T01:57:18.108Z,4.20
2022-10-02T01:59:54.635Z,4.95
2022-10-02T02:02:27.546Z,5.30
2022-10-02T02:05:01.497Z,4.95
2022-10-02T02:07:39.862Z,5.05
2022-10-02T02:10:16.637Z,4.95
2022-10-02T02:12:50.836Z,5.97
2022-10-02T02:15:26.898Z,6.80
2022-10-02T02:17:59.391Z,3.75
2022-10-02T02:20:32.052Z,7.35
2022-10-02T02:23:05.710Z,10.48
2022-10-02T02:25:38.705Z,5.93
2022-10-02T02:28:12.465Z,5.45
2022-10-02T02:30:44.267Z,4.68
2022-10-02T02:33:18.602Z,7.38
2022-10-02T02:35:52.630Z,8.43
2022-10-02T02:38:28.634Z,5.90
2022-10-02T02:41:01.031Z,6.07
2022-10-02T02:43:55.078Z,6.22
2022-10-02T02:46:28.244Z,8.43
2022-10-02T02:51:31.850Z,6.53
2022-10-02T02:54:05.669Z,9.15
2022-10-02T02:56:36.464Z,8.52
2022-10-02T02:59:10.075Z,6.60
2022-10-02T03:01:38.914Z,11.57
2022-10-02T03:04:07.502Z,6.78
2022-10-02T03:06:39.439Z,4.50
2022-10-02T03:09:12.647Z,6.80
2022-10-02T03:11:54.635Z,6.93
2022-10-02T03:14:43.470Z,7.28
2022-10-02T03:17:24.804Z,6.78
2022-10-02T03:20:01.553Z,5.63
2022-10-02T03:22:37.165Z,6.10
2022-10-02T03:25:12.427Z,6.13
2022-10-02T03:27:47.817Z,3.83
2022-10-02T03:30:21.989Z,8.85
2022-10-02T03:32:53.814Z,8.45
2022-10-02T03:35:24.300Z,5.97
2022-10-02T03:37:55.529Z,7.25
2022-10-02T03:40:25.224Z,4.88
2022-10-02T03:42:58.234Z,7.28
2022-10-02T03:45:50.015Z,6.22
2022-10-02T03:48:17.186Z,8.90
2022-10-02T03:50:47.899Z,6.53
2022-10-02T03:53:18.397Z,4.18
2022-10-02T03:55:52.538Z,8.20
2022-10-02T03:58:20.646Z,11.63
2022-10-02T04:00:56.591Z,6.15
2022-10-02T04:03:29.152Z,5.55
2022-10-02T04:06:03.068Z,4.65
2022-10-02T04:08:35.703Z,7.30
2022-10-02T04:11:09.789Z,6.00
2022-10-02T04:13:41.578Z,7.68
2022-10-02T04:16:29.403Z,4.93
2022-10-02T04:19:00.436Z,9.02
2022-10-02T04:21:40.761Z,7.90
2022-10-02T04:24:18.043Z,6.03
2022-10-02T04:26:50.398Z,10.25
2022-10-02T04:29:24.409Z,6.35
2022-10-02T04:32:09.031Z,5.10
2022-10-02T04:34:37.435Z,7.18
2022-10-02T04:37:25.041Z,5.05
2022-10-02T04:40:08.179Z,6.57
2022-10-02T04:42:49.622Z,5.45
2022-10-02T04:45:34.301Z,6.30
2022-10-02T04:48:48.912Z,4.07
2022-10-02T04:51:37.912Z,8.27
2022-10-02T04:54:29.152Z,6.25
2022-10-02T04:57:21.736Z,6.53
2022-10-02T05:00:04.804Z,8.65
2022-10-02T05:02:46.465Z,5.45
2022-10-02T05:05:32.013Z,5.60
2022-10-02T05:08:24.942Z,6.85
2022-10-02T05:11:06.413Z,9.20
2022-10-02T05:13:52.248Z,6.82
2022-10-02T05:16:34.618Z,3.88
2022-10-02T05:19:20.976Z,7.63
2022-10-02T05:22:23.530Z,6.75
2022-10-02T05:25:06.804Z,3.78
2022-10-02T05:28:00.417Z,7.93
2022-10-02T05:33:32.860Z,6.50
2022-10-02T05:36:18.108Z,7.47
2022-10-02T05:39:01.893Z,6.50
2022-10-02T05:41:43.331Z,7.03
2022-10-02T05:44:17.893Z,8.40
2022-10-02T05:46:51.921Z,5.55
2022-10-02T05:49:24.074Z,5.90
2022-10-02T05:51:59.892Z,7.20
2022-10-02T05:54:50.178Z,7.47
2022-10-02T05:57:27.467Z,5.28
2022-10-02T06:00:11.542Z,6.07
2022-10-02T06:02:49.567Z,5.05
2022-10-02T06:05:23.140Z,5.30
2022-10-02T06:07:55.981Z,6.38
2022-10-02T06:13:03.402Z,3.85
2022-10-02T06:15:36.400Z,6.80
2022-10-02T06:18:09.026Z,7.93
2022-10-02T06:20:41.976Z,7.13
2022-10-02T06:23:16.804Z,9.20
2022-10-02T06:25:48.566Z,6.40
2022-10-02T06:28:23.939Z,6.03
2022-10-02T06:31:01.065Z,7.13
2022-10-02T06:33:33.891Z,6.57
2022-10-02T06:36:34.059Z,5.30
2022-10-02T06:39:21.894Z,3.30
2022-10-02T06:42:01.741Z,6.50
2022-10-02T06:44:37.379Z,7.00
2022-10-02T06:47:24.862Z,6.22
2022-10-02T06:50:21.778Z,7.25
2022-10-02T06:52:58.130Z,5.32
2022-10-02T06:55:39.578Z,5.53
2022-10-02T06:58:24.753Z,3.05
2022-10-02T07:01:00.554Z,6.72
2022-10-02T07:04:07.219Z,9.15
2022-10-02T07:06:47.129Z,5.78
2022-10-02T07:09:45.150Z,6.28
2022-10-02T07:12:44.106Z,10.43
2022-10-02T07:15:36.489Z,6.93
2022-10-02T07:18:21.807Z,4.88
2022-10-02T07:21:00.162Z,6.45
2022-10-02T07:23:44.728Z,7.85
2022-10-02T07:26:42.723Z,4.10
2022-10-02T07:29:34.671Z,6.95
2022-10-02T07:32:38.915Z,9.35
2022-10-02T07:35:49.437Z,7.40
2022-10-02T07:38:46.355Z,3.47
2022-10-02T07:41:32.790Z,4.15
2022-10-02T07:44:08.525Z,6.15
2022-10-02T07:46:51.337Z,5.88
2022-10-02T07:49:44.660Z,3.72
2022-10-02T07:52:27.512Z,2.83
2022-10-02T07:55:17.869Z,3.03
2022-10-02T07:57:58.253Z,4.70
2022-10-02T08:00:30.736Z,3.22
2022-10-02T08:03:02.369Z,3.22
2022-10-02T08:05:36.740Z,3.08
2022-10-02T08:08:17.992Z,3.10
2022-10-02T08:10:50.975Z,5.00
2022-10-02T08:13:22.374Z,3.80
2022-10-02T08:15:57.572Z,4.97
2022-10-02T08:18:34.967Z,2.95
2022-10-02T08:21:07.146Z,5.35
2022-10-02T08:23:41.490Z,5.55
2022-10-02T08:26:18.026Z,6.18
2022-10-02T08:28:52.841Z,6.10
2022-10-02T08:31:21.183Z,7.28
2022-10-02T08:33:51.408Z,4.45
2022-10-02T08:37:15.272Z,2.97
2022-10-02T08:40:18.232Z,3.25
2022-10-02T08:43:37.519Z,5.43
2022-10-02T08:46:34.994Z,3.65
2022-10-02T08:49:44.939Z,4.60
2022-10-02T08:52:41.051Z,2.70
2022-10-02T08:55:50.887Z,3.75
2022-10-02T08:58:44.236Z,3.30
2022-10-02T09:01:32.822Z,3.13
2022-10-02T09:04:38.412Z,3.00
2022-10-02T09:07:39.439Z,2.80
2022-10-02T09:10:46.239Z,2.08
2022-10-02T09:13:48.112Z,2.47
2022-10-02T09:16:25.608Z,2.22
2022-10-02T09:19:03.961Z,2.05
2022-10-02T09:21:56.278Z,2.40
2022-10-02T09:24:59.421Z,3.05
2022-10-02T09:28:09.445Z,4.10
2022-10-02T09:31:24.812Z,7.25
2022-10-02T09:34:21.166Z,7.03
2022-10-02T09:37:10.588Z,3.90
2022-10-02T09:40:02.969Z,3.40
2022-10-02T09:43:00.428Z,3.88
2022-10-02T09:45:53.742Z,11.65
2022-10-02T09:49:03.842Z,7.97
2022-10-02T09:52:06.622Z,4.00
2022-10-02T09:55:11.392Z,3.40
2022-10-02T09:58:25.125Z,3.25
2022-10-02T10:01:24.613Z,3.08
2022-10-02T10:04:14.125Z,1.95
2022-10-02T10:07:02.797Z,1.95
2022-10-02T10:10:08.555Z,2.10
2022-10-02T10:13:09.278Z,1.73
2022-10-02T10:16:14.030Z,2.97
2022-10-02T10:19:14.941Z,2.33
2022-10-02T10:22:28.394Z,1.45
2022-10-02T10:25:23.783Z,2.25
2022-10-02T10:28:14.797Z,0.82
2022-10-02T10:31:35.217Z,1.50
2022-10-02T10:34:35.129Z,1.05
2022-10-02T10:37:24.153Z,2.25
2022-10-02T10:40:28.759Z,1.10
2022-10-02T10:43:46.387Z,2.33
2022-10-02T10:46:33.940Z,1.00
2022-10-02T10:49:37.013Z,2.70
2022-10-02T10:52:25.732Z,3.15
2022-10-02T10:55:14.754Z,2.30
2022-10-02T10:58:03.650Z,1.55
2022-10-02T11:00:42.190Z,1.38
2022-10-02T11:03:41.316Z,1.33
2022-10-02T11:06:51.944Z,0.85
2022-10-02T11:09:59.201Z,1.95
2022-10-02T11:13:23.916Z,2.47
2022-10-02T11:16:19.362Z,4.20
2022-10-02T11:19:19.194Z,1.00
2022-10-02T11:22:12.927Z,1.20
2022-10-02T11:25:13.207Z,1.20
2022-10-02T11:28:05.454Z,1.67
2022-10-02T11:30:45.016Z,0.75
2022-10-02T11:33:34.626Z,2.00
2022-10-02T11:36:29.818Z,1.58
2022-10-02T11:39:16.061Z,0.93
2022-10-02T11:42:19.833Z,2.38
2022-10-02T11:48:12.483Z,2.25
2022-10-02T11:51:10.035Z,2.25
2022-10-02T11:53:53.835Z,2.20
2022-10-02T11:56:42.721Z,4.47
2022-10-02T11:59:30.606Z,3.65
2022-10-02T12:02:15.629Z,2.70
2022-10-02T12:05:11.370Z,2.47
2022-10-02T12:07:47.010Z,2.00
2022-10-02T12:10:35.714Z,2.20
2022-10-02T12:13:22.244Z,3.08
2022-10-02T12:15:58.470Z,1.60
2022-10-02T12:18:50.617Z,1.65
2022-10-02T12:21:55.386Z,2.05
2022-10-02T12:24:56.267Z,3.03
2022-10-02T12:27:38.408Z,3.08
2022-10-02T12:30:16.476Z,2.40
2022-10-02T12:33:08.880Z,1.80
2022-10-02T12:35:48.016Z,1.75
2022-10-02T12:38:35.101Z,2.28
2022-10-02T12:41:13.264Z,4.88
2022-10-02T12:44:04.297Z,4.82
2022-10-02T12:46:52.851Z,6.05
2022-10-02T12:49:35.248Z,4.47
2022-10-02T12:52:31.505Z,3.90
2022-10-02T12:55:45.006Z,3.95
2022-10-02T12:58:25.916Z,5.38
2022-10-02T13:01:39.026Z,4.78
2022-10-02T13:04:57.425Z,2.72
2022-10-02T13:08:05.335Z,3.47
2022-10-02T13:10:40.692Z,2.80
2022-10-02T13:13:25.056Z,2.78
2022-10-02T13:16:04.745Z,4.28
2022-10-02T13:18:52.981Z,3.05
2022-10-02T13:21:28.534Z,2.90
2022-10-02T13:24:12.747Z,3.60
2022-10-02T13:26:54.205Z,3.20
2022-10-02T13:29:51.829Z,1.80
2022-10-02T13:32:46.162Z,2.38
2022-10-02T13:35:41.738Z,4.28
2022-10-02T13:38:28.808Z,4.53
2022-10-02T13:41:08.454Z,4.03
2022-10-02T13:44:08.178Z,5.90
2022-10-02T13:47:03.839Z,3.47
2022-10-02T13:49:49.165Z,2.25
2022-10-02T13:52:30.135Z,11.65
2022-10-02T13:55:20.684Z,7.68
2022-10-02T13:58:18.669Z,3.45
2022-10-02T14:01:19.324Z,2.83
2022-10-02T14:04:10.801Z,1.55
2022-10-02T14:06:45.596Z,1.70
2022-10-02T14:09:30.466Z,2.15
2022-10-02T14:12:11.727Z,4.18
2022-10-02T14:15:00.258Z,1.40
2022-10-02T14:17:36.024Z,1.98
2022-10-02T14:20:28.189Z,2.33
2022-10-02T14:23:16.483Z,1.45
2022-10-02T14:25:58.345Z,1.70
2022-10-02T14:28:57.263Z,1.65
2022-10-02T14:31:54.176Z,1.45
2022-10-02T14:35:11.727Z,2.47
2022-10-02T14:38:15.879Z,1.40
2022-10-02T14:43:42.161Z,2.83
2022-10-02T14:46:24.901Z,2.55
2022-10-02T14:49:10.995Z,3.08
2022-10-02T14:51:59.792Z,4.00
2022-10-02T14:54:50.369Z,4.40
2022-10-02T14:57:37.762Z,3.53
2022-10-02T15:00:21.848Z,1.95
2022-10-02T15:03:19.862Z,2.78
2022-10-02T15:06:26.784Z,2.30
2022-10-02T15:09:04.292Z,6.00
2022-10-02T15:12:02.759Z,5.93
2022-10-02T15:14:40.706Z,5.47
2022-10-02T15:17:33.367Z,6.25
2022-10-02T15:20:12.189Z,7.85
2022-10-02T15:22:47.021Z,4.90
2022-10-02T15:25:33.691Z,4.90
2022-10-02T15:28:35.323Z,4.38
2022-10-02T15:31:17.153Z,4.72
2022-10-02T15:33:55.804Z,5.10
2022-10-02T15:37:00.891Z,7.60
2022-10-02T15:39:51.405Z,11.45
2022-10-02T15:42:46.889Z,9.43
2022-10-02T15:45:45.681Z,7.75
2022-10-02T15:48:34.164Z,6.32
2022-10-02T15:51:14.307Z,7.72
2022-10-02T15:53:56.067Z,6.50
2022-10-02T15:56:43.906Z,5.65
2022-10-02T15:59:31.039Z,6.28
2022-10-02T16:02:18.114Z,6.00
2022-10-02T16:04:57.689Z,7.07
2022-10-02T16:07:52.899Z,8.82
2022-10-02T16:10:25.824Z,5.32
2022-10-02T16:13:20.860Z,4.75
2022-10-02T16:15:54.476Z,4.90
2022-10-02T16:18:55.194Z,5.35
2022-10-02T16:21:51.191Z,4.13
2022-10-02T16:24:58.318Z,3.47
2022-10-02T16:27:52.328Z,2.72
2022-10-02T16:30:22.433Z,3.67
2022-10-02T16:33:18.701Z,3.85
2022-10-02T16:36:04.646Z,5.43
2022-10-02T16:38:49.390Z,8.38
2022-10-02T16:41:37.078Z,7.05
2022-10-02T16:44:31.046Z,6.80
2022-10-02T16:47:10.215Z,4.65
2022-10-02T16:49:52.288Z,3.65
2022-10-02T16:52:30.839Z,4.25
2022-10-02T16:55:09.735Z,4.93
2022-10-02T16:57:59.587Z,4.95
2022-10-02T17:00:32.735Z,4.85
2022-10-02T17:05:46.188Z,5.68
2022-10-02T17:08:26.290Z,4.00
2022-10-02T17:11:07.032Z,4.07
2022-10-02T17:13:48.117Z,6.38
2022-10-02T17:16:21.542Z,6.45
2022-10-02T17:18:55.735Z,6.93
2022-10-02T17:21:30.018Z,5.90
2022-10-02T17:24:31.780Z,3.65
2022-10-02T17:27:16.177Z,3.92
2022-10-02T17:29:53.928Z,3.00
2022-10-02T17:32:50.741Z,4.53
2022-10-02T17:35:31.742Z,4.20
2022-10-02T17:38:20.050Z,4.25
2022-10-02T17:40:55.319Z,3.70
2022-10-02T17:43:31.057Z,3.53
2022-10-02T17:46:23.146Z,3.55
2022-10-02T17:48:57.971Z,3.05
2022-10-02T17:51:52.258Z,2.97
2022-10-02T17:55:04.778Z,3.80
2022-10-02T17:57:51.735Z,4.55
2022-10-02T18:00:22.932Z,4.45
2022-10-02T18:03:09.136Z,4.78
2022-10-02T18:05:51.556Z,4.63
2022-10-02T18:08:48.015Z,4.90
2022-10-02T18:11:33.949Z,5.03
2022-10-02T18:14:19.618Z,5.38
2022-10-02T18:17:04.778Z,5.47
2022-10-02T18:19:48.158Z,5.63
2022-10-02T18:25:27.465Z,5.38
2022-10-02T18:28:28.262Z,4.38
2022-10-02T18:31:14.857Z,4.78
2022-10-02T18:34:18.949Z,5.15
2022-10-02T18:37:10.723Z,13.13
2022-10-02T18:39:44.803Z,13.13
2022-10-02T18:42:39.985Z,13.80
2022-10-02T18:45:29.866Z,14.57
2022-10-02T18:48:19.660Z,21.58
2022-10-02T18:50:57.693Z,24.25
2022-10-02T18:53:40.240Z,25.17
2022-10-02T18:56:12.446Z,16.27
2022-10-02T18:58:57.731Z,16.73
2022-10-02T19:01:48.893Z,19.67
2022-10-02T19:05:05.188Z,21.48
2022-10-02T19:07:42.184Z,23.88
2022-10-02T19:10:40.240Z,23.35
2022-10-02T19:13:18.326Z,27.55
2022-10-02T19:15:50.736Z,33.33
2022-10-02T19:18:20.942Z,101.03
2022-10-02T19:21:19.137Z,44.20
2022-10-02T19:23:55.271Z,38.53
2022-10-02T19:26:26.805Z,41.38
2022-10-02T19:29:01.130Z,28.40
2022-10-02T19:31:33.800Z,22.55
2022-10-02T19:34:06.880Z,15.25
2022-10-02T19:36:40.102Z,15.93
2022-10-02T19:39:18.884Z,23.65
2022-10-02T19:41:48.001Z,25.23
2022-10-02T19:44:21.553Z,16.60
2022-10-02T19:46:53.496Z,19.45
2022-10-02T19:49:25.673Z,20.35
2022-10-02T19:51:56.810Z,20.65
2022-10-02T19:54:28.774Z,16.58
2022-10-02T19:57:04.417Z,17.95
2022-10-02T19:59:41.883Z,17.13
2022-10-02T20:02:16.946Z,16.15
2022-10-02T20:04:45.464Z,17.27
2022-10-02T20:07:20.802Z,17.05
2022-10-02T20:09:53.902Z,15.25
2022-10-02T20:14:58.624Z,18.65
2022-10-02T20:17:29.191Z,15.23
2022-10-02T20:19:59.125Z,18.40
2022-10-02T20:22:39.970Z,18.35
2022-10-02T20:25:17.339Z,16.58
2022-10-02T20:27:50.416Z,22.98
2022-10-02T20:32:53.437Z,26.50
2022-10-02T20:35:29.431Z,21.38
2022-10-02T20:38:05.410Z,22.13
2022-10-02T20:40:36.563Z,17.77
2022-10-02T20:43:15.623Z,18.67
2022-10-02T20:45:47.641Z,16.58
2022-10-02T20:49:08.031Z,15.27
2022-10-02T20:52:17.186Z,16.52
2022-10-02T20:54:59.067Z,16.65
2022-10-02T20:58:01.172Z,22.38
2022-10-02T21:00:39.490Z,27.63
2022-10-02T21:03:34.563Z,20.05
2022-10-02T21:06:23.584Z,18.88
2022-10-02T21:09:29.867Z,20.98
2022-10-02T21:12:23.467Z,21.05
2022-10-02T21:18:15.204Z,15.68
2022-10-02T21:21:20.354Z,17.95
2022-10-02T21:24:27.524Z,14.45
2022-10-02T21:27:30.989Z,15.95
2022-10-02T21:30:12.291Z,13.88
2022-10-02T21:33:16.517Z,15.25
2022-10-02T21:36:01.615Z,13.10
2022-10-02T21:39:16.912Z,11.70
2022-10-02T21:42:18.093Z,12.77
2022-10-02T21:45:27.226Z,13.15
2022-10-02T21:48:31.458Z,15.50
2022-10-02T21:51:39.539Z,12.52
2022-10-02T21:54:53.247Z,14.27
2022-10-02T21:58:08.995Z,17.73
2022-10-02T22:00:58.910Z,15.50
2022-10-02T22:03:48.827Z,20.30
2022-10-02T22:06:28.942Z,19.40
2022-10-02T22:09:36.136Z,23.38
2022-10-02T22:12:20.497Z,26.40
2022-10-02T22:14:58.389Z,28.30
2022-10-02T22:17:33.933Z,29.08
2022-10-02T22:20:20.308Z,22.80
2022-10-02T22:23:09.807Z,22.08
2022-10-02T22:25:53.168Z,26.77
2022-10-02T22:31:33.767Z,23.17
2022-10-02T22:34:19.158Z,18.50
2022-10-02T22:37:19.797Z,19.63
2022-10-02T22:40:00.815Z,16.25
2022-10-02T22:42:38.230Z,20.38
2022-10-02T22:45:19.023Z,13.23
2022-10-02T22:47:56.883Z,14.32
2022-10-02T22:50:30.458Z,14.68
2022-10-02T22:53:12.789Z,14.07
2022-10-02T22:55:51.990Z,14.57
2022-10-02T22:58:32.776Z,13.73
2022-10-02T23:01:11.338Z,12.68
2022-10-02T23:03:44.161Z,13.80
2022-10-02T23:06:25.408Z,15.63
2022-10-02T23:09:03.159Z,13.55
2022-10-02T23:11:39.820Z,14.02
2022-10-02T23:14:19.420Z,14.57
2022-10-02T23:16:53.231Z,11.98
2022-10-02T23:19:29.123Z,13.82
2022-10-02T23:22:04.553Z,12.20
2022-10-02T23:24:39.034Z,12.73
2022-10-02T23:27:14.437Z,11.30
2022-10-02T23:29:54.267Z,11.25
2022-10-02T23:32:31.990Z,26.17
2022-10-02T23:35:06.718Z,29.38
2022-10-02T23:37:45.335Z,20.27
2022-10-02T23:40:50.077Z,15.77
2022-10-02T23:43:27.046Z,13.60
2022-10-02T23:46:05.680Z,13.43
2022-10-02T23:48:34.609Z,14.00
2022-10-02T23:51:17.040Z,12.75
2022-10-02T23:54:20.344Z,12.85
2022-10-02T23:57:14.743Z,10.65
